sensor_id;sensor_type;location;lat;lon;timestamp;temperature;humidity
17687;DHT22;8962;52.538;13.266;2023-02-03T00:00:02;3.50;99.90
17687;DHT22;8962;52.538;13.266;2023-02-03T00:02:38;3.50;99.90
17687;DHT22;8962;52.538;13.266;2023-02-03T00:05:07;3.50;99.90
17687;DHT22;8962;52.538;13.266;2023-02-03T00:07:36;3.50;99.90
17687;DHT22;8962;52.538;13.266;2023-02-03T00:10:04;3.50;99.90
17687;DHT22;8962;52.538;13.266;2023-02-03T00:12:33;3.50;99.90
17687;DHT22;8962;52.538;13.266;2023-02-03T00:15:00;3.50;99.90
17687;DHT22;8962;52.538;13.266;2023-02-03T00:17:27;3.60;99.90
17687;DHT22;8962;52.538;13.266;2023-02-03T00:19:56;3.60;99.90
17687;DHT22;8962;52.538;13.266;2023-02-03T00:22:23;3.60;99.90
17687;DHT22;8962;52.538;13.266;2023-02-03T00:24:51;3.60;99.90
17687;DHT22;8962;52.538;13.266;2023-02-03T00:27:18;3.60;99.90
17687;DHT22;8962;52.538;13.266;2023-02-03T00:29:45;3.60;99.90
17687;DHT22;8962;52.538;13.266;2023-02-03T00:32:13;3.60;99.90
17687;DHT22;8962;52.538;13.266;2023-02-03T00:34:39;3.60;99.90
17687;DHT22;8962;52.538;13.266;2023-02-03T00:37:10;3.60;99.90
17687;DHT22;8962;52.538;13.266;2023-02-03T00:39:38;3.60;99.90
17687;DHT22;8962;52.538;13.266;2023-02-03T00:42:05;3.60;99.90
17687;DHT22;8962;52.538;13.266;2023-02-03T00:44:32;3.70;99.90
17687;DHT22;8962;52.538;13.266;2023-02-03T00:47:00;3.60;99.90
17687;DHT22;8962;52.538;13.266;2023-02-03T00:49:28;3.60;99.90
17687;DHT22;8962;52.538;13.266;2023-02-03T00:51:56;3.60;99.90
17687;DHT22;8962;52.538;13.266;2023-02-03T00:54:24;3.60;99.90
17687;DHT22;8962;52.538;13.266;2023-02-03T00:56:51;3.50;99.90
17687;DHT22;8962;52.538;13.266;2023-02-03T00:59:18;3.50;99.90
17687;DHT22;8962;52.538;13.266;2023-02-03T01:01:46;3.50;99.90
17687;DHT22;8962;52.538;13.266;2023-02-03T01:04:18;3.50;99.90
17687;DHT22;8962;52.538;13.266;2023-02-03T01:06:45;3.50;99.90
17687;DHT22;8962;52.538;13.266;2023-02-03T01:09:14;3.50;99.90
17687;DHT22;8962;52.538;13.266;2023-02-03T01:11:44;3.40;99.90
17687;DHT22;8962;52.538;13.266;2023-02-03T01:14:13;3.40;99.90
17687;DHT22;8962;52.538;13.266;2023-02-03T01:16:40;3.40;99.90
17687;DHT22;8962;52.538;13.266;2023-02-03T01:19:09;3.40;99.90
17687;DHT22;8962;52.538;13.266;2023-02-03T01:21:38;3.40;99.90
17687;DHT22;8962;52.538;13.266;2023-02-03T01:24:05;3.40;99.90
17687;DHT22;8962;52.538;13.266;2023-02-03T01:26:35;3.30;99.90
17687;DHT22;8962;52.538;13.266;2023-02-03T01:29:06;3.30;99.90
17687;DHT22;8962;52.538;13.266;2023-02-03T01:31:36;3.30;99.90
17687;DHT22;8962;52.538;13.266;2023-02-03T01:34:07;3.30;99.90
17687;DHT22;8962;52.538;13.266;2023-02-03T01:36:37;3.30;99.90
17687;DHT22;8962;52.538;13.266;2023-02-03T01:39:07;3.30;99.90
17687;DHT22;8962;52.538;13.266;2023-02-03T01:41:36;3.20;99.90
17687;DHT22;8962;52.538;13.266;2023-02-03T01:47:22;3.10;99.90
17687;DHT22;8962;52.538;13.266;2023-02-03T01:50:05;3.10;99.90
17687;DHT22;8962;52.538;13.266;2023-02-03T01:52:36;3.10;99.90
17687;DHT22;8962;52.538;13.266;2023-02-03T01:55:08;3.10;99.90
17687;DHT22;8962;52.538;13.266;2023-02-03T01:57:38;3.10;99.90
17687;DHT22;8962;52.538;13.266;2023-02-03T02:00:12;3.10;99.90
17687;DHT22;8962;52.538;13.266;2023-02-03T02:02:42;3.00;99.90
17687;DHT22;8962;52.538;13.266;2023-02-03T02:05:17;3.00;99.90
17687;DHT22;8962;52.538;13.266;2023-02-03T02:07:47;3.00;99.90
17687;DHT22;8962;52.538;13.266;2023-02-03T02:10:15;3.00;99.90
17687;DHT22;8962;52.538;13.266;2023-02-03T02:12:43;2.90;99.90
17687;DHT22;8962;52.538;13.266;2023-02-03T02:15:11;3.00;99.90
17687;DHT22;8962;52.538;13.266;2023-02-03T02:17:57;3.00;99.90
17687;DHT22;8962;52.538;13.266;2023-02-03T02:23:50;3.00;99.90
17687;DHT22;8962;52.538;13.266;2023-02-03T02:33:01;3.00;99.90
17687;DHT22;8962;52.538;13.266;2023-02-03T02:35:45;3.00;99.90
17687;DHT22;8962;52.538;13.266;2023-02-03T02:38:20;3.00;99.90
17687;DHT22;8962;52.538;13.266;2023-02-03T02:40:53;3.00;99.90
17687;DHT22;8962;52.538;13.266;2023-02-03T02:43:25;3.10;99.90
17687;DHT22;8962;52.538;13.266;2023-02-03T02:46:00;3.10;99.90
17687;DHT22;8962;52.538;13.266;2023-02-03T02:48:34;3.10;99.90
17687;DHT22;8962;52.538;13.266;2023-02-03T02:51:05;3.00;99.90
17687;DHT22;8962;52.538;13.266;2023-02-03T02:53:36;3.00;99.90
17687;DHT22;8962;52.538;13.266;2023-02-03T02:56:08;3.00;99.90
17687;DHT22;8962;52.538;13.266;2023-02-03T02:58:37;3.00;99.90
17687;DHT22;8962;52.538;13.266;2023-02-03T03:01:06;3.00;99.90
17687;DHT22;8962;52.538;13.266;2023-02-03T03:03:39;3.00;99.90
17687;DHT22;8962;52.538;13.266;2023-02-03T03:06:12;3.00;99.90
17687;DHT22;8962;52.538;13.266;2023-02-03T03:08:45;3.00;99.90
17687;DHT22;8962;52.538;13.266;2023-02-03T03:11:16;3.00;99.90
17687;DHT22;8962;52.538;13.266;2023-02-03T03:13:46;3.00;99.90
17687;DHT22;8962;52.538;13.266;2023-02-03T03:16:14;3.10;99.90
17687;DHT22;8962;52.538;13.266;2023-02-03T03:18:51;3.00;99.90
17687;DHT22;8962;52.538;13.266;2023-02-03T03:21:23;3.00;99.90
17687;DHT22;8962;52.538;13.266;2023-02-03T03:23:54;3.10;99.90
17687;DHT22;8962;52.538;13.266;2023-02-03T03:26:27;3.10;99.90
17687;DHT22;8962;52.538;13.266;2023-02-03T03:29:02;3.10;99.90
17687;DHT22;8962;52.538;13.266;2023-02-03T03:31:32;3.10;99.90
17687;DHT22;8962;52.538;13.266;2023-02-03T03:34:00;3.10;99.90
17687;DHT22;8962;52.538;13.266;2023-02-03T03:36:30;3.20;99.90
17687;DHT22;8962;52.538;13.266;2023-02-03T03:39:04;3.10;99.90
17687;DHT22;8962;52.538;13.266;2023-02-03T03:41:38;3.10;99.90
17687;DHT22;8962;52.538;13.266;2023-02-03T03:44:11;3.20;99.90
17687;DHT22;8962;52.538;13.266;2023-02-03T03:46:42;3.20;99.90
17687;DHT22;8962;52.538;13.266;2023-02-03T03:49:13;3.20;99.90
17687;DHT22;8962;52.538;13.266;2023-02-03T03:51:45;3.30;99.90
17687;DHT22;8962;52.538;13.266;2023-02-03T03:54:17;3.30;99.90
17687;DHT22;8962;52.538;13.266;2023-02-03T03:56:50;3.30;99.90
17687;DHT22;8962;52.538;13.266;2023-02-03T03:59:21;3.40;99.90
17687;DHT22;8962;52.538;13.266;2023-02-03T04:01:50;3.40;99.90
17687;DHT22;8962;52.538;13.266;2023-02-03T04:04:20;3.40;99.90
17687;DHT22;8962;52.538;13.266;2023-02-03T04:06:52;3.50;99.90
17687;DHT22;8962;52.538;13.266;2023-02-03T04:09:19;3.50;99.90
17687;DHT22;8962;52.538;13.266;2023-02-03T04:11:46;3.50;99.90
17687;DHT22;8962;52.538;13.266;2023-02-03T04:14:29;3.60;99.90
17687;DHT22;8962;52.538;13.266;2023-02-03T04:16:57;3.60;99.90
17687;DHT22;8962;52.538;13.266;2023-02-03T04:19:26;3.70;99.90
17687;DHT22;8962;52.538;13.266;2023-02-03T04:21:53;3.80;99.90
17687;DHT22;8962;52.538;13.266;2023-02-03T04:24:20;3.80;99.90
17687;DHT22;8962;52.538;13.266;2023-02-03T04:26:47;3.90;99.90
17687;DHT22;8962;52.538;13.266;2023-02-03T04:29:14;3.90;99.90
17687;DHT22;8962;52.538;13.266;2023-02-03T04:31:41;3.90;99.90
17687;DHT22;8962;52.538;13.266;2023-02-03T04:34:09;3.90;99.90
17687;DHT22;8962;52.538;13.266;2023-02-03T04:36:38;4.00;99.90
17687;DHT22;8962;52.538;13.266;2023-02-03T04:39:05;4.10;99.90
17687;DHT22;8962;52.538;13.266;2023-02-03T04:41:32;4.20;99.90
17687;DHT22;8962;52.538;13.266;2023-02-03T04:44:00;4.20;99.90
17687;DHT22;8962;52.538;13.266;2023-02-03T04:46:27;4.30;99.90
17687;DHT22;8962;52.538;13.266;2023-02-03T04:48:54;4.40;99.90
17687;DHT22;8962;52.538;13.266;2023-02-03T04:51:21;4.40;99.90
17687;DHT22;8962;52.538;13.266;2023-02-03T04:53:50;4.50;99.90
17687;DHT22;8962;52.538;13.266;2023-02-03T04:56:17;4.60;99.90
17687;DHT22;8962;52.538;13.266;2023-02-03T04:58:44;4.70;99.90
17687;DHT22;8962;52.538;13.266;2023-02-03T05:01:11;4.80;99.90
17687;DHT22;8962;52.538;13.266;2023-02-03T05:03:38;4.90;99.90
17687;DHT22;8962;52.538;13.266;2023-02-03T05:06:06;5.00;99.90
17687;DHT22;8962;52.538;13.266;2023-02-03T05:08:34;5.10;99.90
17687;DHT22;8962;52.538;13.266;2023-02-03T05:11:03;5.20;99.90
17687;DHT22;8962;52.538;13.266;2023-02-03T05:13:30;5.30;99.90
17687;DHT22;8962;52.538;13.266;2023-02-03T05:15:57;5.30;99.90
17687;DHT22;8962;52.538;13.266;2023-02-03T05:18:24;5.40;99.90
17687;DHT22;8962;52.538;13.266;2023-02-03T05:20:52;5.50;99.90
17687;DHT22;8962;52.538;13.266;2023-02-03T05:23:19;5.60;99.90
17687;DHT22;8962;52.538;13.266;2023-02-03T05:25:46;5.60;99.90
17687;DHT22;8962;52.538;13.266;2023-02-03T05:28:15;5.70;99.90
17687;DHT22;8962;52.538;13.266;2023-02-03T05:30:42;5.80;99.90
17687;DHT22;8962;52.538;13.266;2023-02-03T05:33:09;5.80;99.90
17687;DHT22;8962;52.538;13.266;2023-02-03T05:35:36;5.90;99.90
17687;DHT22;8962;52.538;13.266;2023-02-03T05:38:03;6.00;99.90
17687;DHT22;8962;52.538;13.266;2023-02-03T05:40:30;6.10;99.90
17687;DHT22;8962;52.538;13.266;2023-02-03T05:43:16;6.20;99.90
17687;DHT22;8962;52.538;13.266;2023-02-03T05:45:43;6.30;99.90
17687;DHT22;8962;52.538;13.266;2023-02-03T05:48:11;6.30;99.90
17687;DHT22;8962;52.538;13.266;2023-02-03T05:50:39;6.40;99.90
17687;DHT22;8962;52.538;13.266;2023-02-03T05:53:06;6.40;99.90
17687;DHT22;8962;52.538;13.266;2023-02-03T05:55:34;6.50;99.90
17687;DHT22;8962;52.538;13.266;2023-02-03T05:58:01;6.50;99.90
17687;DHT22;8962;52.538;13.266;2023-02-03T06:00:30;6.60;99.90
17687;DHT22;8962;52.538;13.266;2023-02-03T06:02:59;6.60;99.90
17687;DHT22;8962;52.538;13.266;2023-02-03T06:05:29;6.70;99.90
17687;DHT22;8962;52.538;13.266;2023-02-03T06:07:57;6.70;99.90
17687;DHT22;8962;52.538;13.266;2023-02-03T06:10:24;6.80;99.90
17687;DHT22;8962;52.538;13.266;2023-02-03T06:12:52;6.80;99.90
17687;DHT22;8962;52.538;13.266;2023-02-03T06:15:19;6.80;99.90
17687;DHT22;8962;52.538;13.266;2023-02-03T06:17:48;6.80;99.90
17687;DHT22;8962;52.538;13.266;2023-02-03T06:20:18;6.80;99.90
17687;DHT22;8962;52.538;13.266;2023-02-03T06:22:45;6.80;99.90
17687;DHT22;8962;52.538;13.266;2023-02-03T06:25:12;6.90;99.90
17687;DHT22;8962;52.538;13.266;2023-02-03T06:27:40;6.90;99.90
17687;DHT22;8962;52.538;13.266;2023-02-03T06:30:08;6.90;99.90
17687;DHT22;8962;52.538;13.266;2023-02-03T06:32:36;7.00;99.90
17687;DHT22;8962;52.538;13.266;2023-02-03T06:35:04;6.90;99.90
17687;DHT22;8962;52.538;13.266;2023-02-03T06:37:32;7.00;99.90
17687;DHT22;8962;52.538;13.266;2023-02-03T06:40:00;7.00;99.90
17687;DHT22;8962;52.538;13.266;2023-02-03T06:42:27;7.00;99.90
17687;DHT22;8962;52.538;13.266;2023-02-03T06:44:54;7.00;99.90
17687;DHT22;8962;52.538;13.266;2023-02-03T06:47:21;7.10;99.90
17687;DHT22;8962;52.538;13.266;2023-02-03T06:49:48;7.10;99.90
17687;DHT22;8962;52.538;13.266;2023-02-03T06:52:18;7.20;99.90
17687;DHT22;8962;52.538;13.266;2023-02-03T06:54:45;7.20;99.90
17687;DHT22;8962;52.538;13.266;2023-02-03T06:57:12;7.30;99.90
17687;DHT22;8962;52.538;13.266;2023-02-03T06:59:40;7.30;99.90
17687;DHT22;8962;52.538;13.266;2023-02-03T07:02:09;7.30;99.90
17687;DHT22;8962;52.538;13.266;2023-02-03T07:04:37;7.30;99.90
17687;DHT22;8962;52.538;13.266;2023-02-03T07:07:04;7.30;99.90
17687;DHT22;8962;52.538;13.266;2023-02-03T07:09:33;7.40;99.90
17687;DHT22;8962;52.538;13.266;2023-02-03T07:12:00;7.40;99.90
17687;DHT22;8962;52.538;13.266;2023-02-03T07:14:27;7.40;99.90
17687;DHT22;8962;52.538;13.266;2023-02-03T07:16:55;7.50;99.90
17687;DHT22;8962;52.538;13.266;2023-02-03T07:19:23;7.50;99.90
17687;DHT22;8962;52.538;13.266;2023-02-03T07:21:50;7.50;99.90
17687;DHT22;8962;52.538;13.266;2023-02-03T07:24:18;7.50;99.90
17687;DHT22;8962;52.538;13.266;2023-02-03T07:26:46;7.50;99.90
17687;DHT22;8962;52.538;13.266;2023-02-03T07:29:13;7.50;99.90
17687;DHT22;8962;52.538;13.266;2023-02-03T07:31:41;7.50;99.90
17687;DHT22;8962;52.538;13.266;2023-02-03T07:34:08;7.50;99.90
17687;DHT22;8962;52.538;13.266;2023-02-03T07:36:35;7.50;99.90
17687;DHT22;8962;52.538;13.266;2023-02-03T07:39:03;7.60;99.90
17687;DHT22;8962;52.538;13.266;2023-02-03T07:41:30;7.60;99.90
17687;DHT22;8962;52.538;13.266;2023-02-03T07:43:58;7.60;99.90
17687;DHT22;8962;52.538;13.266;2023-02-03T07:46:26;7.60;99.90
17687;DHT22;8962;52.538;13.266;2023-02-03T07:48:53;7.60;99.90
17687;DHT22;8962;52.538;13.266;2023-02-03T07:51:20;7.60;99.90
17687;DHT22;8962;52.538;13.266;2023-02-03T07:53:47;7.60;99.90
17687;DHT22;8962;52.538;13.266;2023-02-03T07:56:14;7.60;99.90
17687;DHT22;8962;52.538;13.266;2023-02-03T07:58:42;7.60;99.90
17687;DHT22;8962;52.538;13.266;2023-02-03T08:01:14;7.60;99.90
17687;DHT22;8962;52.538;13.266;2023-02-03T08:03:42;7.60;99.90
17687;DHT22;8962;52.538;13.266;2023-02-03T08:06:09;7.60;99.90
17687;DHT22;8962;52.538;13.266;2023-02-03T08:08:39;7.60;99.90
17687;DHT22;8962;52.538;13.266;2023-02-03T08:11:07;7.60;99.90
17687;DHT22;8962;52.538;13.266;2023-02-03T08:13:34;7.60;99.90
17687;DHT22;8962;52.538;13.266;2023-02-03T08:16:01;7.60;99.90
17687;DHT22;8962;52.538;13.266;2023-02-03T08:18:30;7.60;99.90
17687;DHT22;8962;52.538;13.266;2023-02-03T08:20:57;7.60;99.90
17687;DHT22;8962;52.538;13.266;2023-02-03T08:23:25;7.60;99.90
17687;DHT22;8962;52.538;13.266;2023-02-03T08:25:52;7.60;99.90
17687;DHT22;8962;52.538;13.266;2023-02-03T08:28:19;7.60;99.90
17687;DHT22;8962;52.538;13.266;2023-02-03T08:30:46;7.60;99.90
17687;DHT22;8962;52.538;13.266;2023-02-03T08:33:14;7.60;99.90
17687;DHT22;8962;52.538;13.266;2023-02-03T08:35:45;7.60;99.90
17687;DHT22;8962;52.538;13.266;2023-02-03T08:38:13;7.60;99.90
17687;DHT22;8962;52.538;13.266;2023-02-03T08:40:40;7.60;99.90
17687;DHT22;8962;52.538;13.266;2023-02-03T08:43:07;7.70;99.90
17687;DHT22;8962;52.538;13.266;2023-02-03T08:45:36;7.70;99.90
17687;DHT22;8962;52.538;13.266;2023-02-03T08:48:05;7.70;99.90
17687;DHT22;8962;52.538;13.266;2023-02-03T08:50:32;7.70;99.90
17687;DHT22;8962;52.538;13.266;2023-02-03T08:53:00;7.70;99.90
17687;DHT22;8962;52.538;13.266;2023-02-03T08:55:28;7.80;99.90
17687;DHT22;8962;52.538;13.266;2023-02-03T08:57:55;7.80;99.90
17687;DHT22;8962;52.538;13.266;2023-02-03T09:00:22;7.70;99.90
17687;DHT22;8962;52.538;13.266;2023-02-03T09:02:49;7.70;99.90
17687;DHT22;8962;52.538;13.266;2023-02-03T09:05:17;7.80;99.90
17687;DHT22;8962;52.538;13.266;2023-02-03T09:07:45;7.80;99.90
17687;DHT22;8962;52.538;13.266;2023-02-03T09:10:14;7.80;99.90
17687;DHT22;8962;52.538;13.266;2023-02-03T09:12:41;7.80;99.90
17687;DHT22;8962;52.538;13.266;2023-02-03T09:15:09;7.80;99.90
17687;DHT22;8962;52.538;13.266;2023-02-03T09:17:36;7.80;99.90
17687;DHT22;8962;52.538;13.266;2023-02-03T09:20:04;7.80;99.90
17687;DHT22;8962;52.538;13.266;2023-02-03T09:22:32;7.80;99.90
17687;DHT22;8962;52.538;13.266;2023-02-03T09:24:59;7.90;99.90
17687;DHT22;8962;52.538;13.266;2023-02-03T09:27:27;7.90;99.90
17687;DHT22;8962;52.538;13.266;2023-02-03T09:29:54;7.90;99.90
17687;DHT22;8962;52.538;13.266;2023-02-03T09:32:23;7.90;99.90
17687;DHT22;8962;52.538;13.266;2023-02-03T09:34:50;7.90;99.90
17687;DHT22;8962;52.538;13.266;2023-02-03T09:37:17;7.90;99.90
17687;DHT22;8962;52.538;13.266;2023-02-03T09:39:44;7.90;99.90
17687;DHT22;8962;52.538;13.266;2023-02-03T09:42:24;7.90;99.90
17687;DHT22;8962;52.538;13.266;2023-02-03T09:45:02;7.90;99.90
17687;DHT22;8962;52.538;13.266;2023-02-03T09:47:33;8.00;99.90
17687;DHT22;8962;52.538;13.266;2023-02-03T09:50:03;8.00;99.90
17687;DHT22;8962;52.538;13.266;2023-02-03T09:52:33;8.00;99.90
17687;DHT22;8962;52.538;13.266;2023-02-03T09:55:04;8.00;99.90
17687;DHT22;8962;52.538;13.266;2023-02-03T09:57:39;8.00;99.90
17687;DHT22;8962;52.538;13.266;2023-02-03T10:00:15;8.00;99.90
17687;DHT22;8962;52.538;13.266;2023-02-03T10:02:54;8.10;99.90
17687;DHT22;8962;52.538;13.266;2023-02-03T10:05:26;8.10;99.90
17687;DHT22;8962;52.538;13.266;2023-02-03T10:08:01;8.20;99.90
17687;DHT22;8962;52.538;13.266;2023-02-03T10:10:37;8.20;99.90
17687;DHT22;8962;52.538;13.266;2023-02-03T10:13:18;8.30;99.90
17687;DHT22;8962;52.538;13.266;2023-02-03T10:16:07;8.30;99.90
17687;DHT22;8962;52.538;13.266;2023-02-03T10:18:42;8.40;99.90
17687;DHT22;8962;52.538;13.266;2023-02-03T10:21:14;8.40;99.90
17687;DHT22;8962;52.538;13.266;2023-02-03T10:23:44;8.50;99.90
17687;DHT22;8962;52.538;13.266;2023-02-03T10:26:16;8.50;99.90
17687;DHT22;8962;52.538;13.266;2023-02-03T10:28:50;8.50;99.90
17687;DHT22;8962;52.538;13.266;2023-02-03T10:31:22;8.40;99.90
17687;DHT22;8962;52.538;13.266;2023-02-03T10:33:58;8.40;99.90
17687;DHT22;8962;52.538;13.266;2023-02-03T10:36:34;8.40;99.90
17687;DHT22;8962;52.538;13.266;2023-02-03T10:39:16;8.30;99.90
17687;DHT22;8962;52.538;13.266;2023-02-03T10:41:45;8.30;99.90
17687;DHT22;8962;52.538;13.266;2023-02-03T10:44:14;8.20;99.90
17687;DHT22;8962;52.538;13.266;2023-02-03T10:46:45;8.10;99.90
17687;DHT22;8962;52.538;13.266;2023-02-03T10:49:13;8.00;99.90
17687;DHT22;8962;52.538;13.266;2023-02-03T10:51:46;7.70;99.90
17687;DHT22;8962;52.538;13.266;2023-02-03T10:54:28;7.50;99.90
17687;DHT22;8962;52.538;13.266;2023-02-03T10:57:02;7.50;99.90
17687;DHT22;8962;52.538;13.266;2023-02-03T10:59:32;7.40;99.90
17687;DHT22;8962;52.538;13.266;2023-02-03T11:02:07;7.40;99.90
17687;DHT22;8962;52.538;13.266;2023-02-03T11:04:35;7.40;99.90
17687;DHT22;8962;52.538;13.266;2023-02-03T11:07:04;7.30;99.90
17687;DHT22;8962;52.538;13.266;2023-02-03T11:09:34;7.40;99.90
17687;DHT22;8962;52.538;13.266;2023-02-03T11:12:11;7.40;99.90
17687;DHT22;8962;52.538;13.266;2023-02-03T11:14:39;7.40;99.90
17687;DHT22;8962;52.538;13.266;2023-02-03T11:17:15;7.50;99.90
17687;DHT22;8962;52.538;13.266;2023-02-03T11:19:48;7.60;99.90
17687;DHT22;8962;52.538;13.266;2023-02-03T11:22:27;7.60;99.90
17687;DHT22;8962;52.538;13.266;2023-02-03T11:24:57;7.70;99.90
17687;DHT22;8962;52.538;13.266;2023-02-03T11:27:29;7.70;99.90
17687;DHT22;8962;52.538;13.266;2023-02-03T11:30:10;7.70;99.90
17687;DHT22;8962;52.538;13.266;2023-02-03T11:32:44;7.70;99.90
17687;DHT22;8962;52.538;13.266;2023-02-03T11:35:16;7.80;99.90
17687;DHT22;8962;52.538;13.266;2023-02-03T11:37:44;7.90;99.90
17687;DHT22;8962;52.538;13.266;2023-02-03T11:40:22;7.90;99.90
17687;DHT22;8962;52.538;13.266;2023-02-03T11:43:04;7.90;99.90
17687;DHT22;8962;52.538;13.266;2023-02-03T11:45:37;8.00;99.90
17687;DHT22;8962;52.538;13.266;2023-02-03T11:48:23;8.00;99.90
17687;DHT22;8962;52.538;13.266;2023-02-03T11:50:59;8.10;99.90
17687;DHT22;8962;52.538;13.266;2023-02-03T11:53:31;8.30;99.90
17687;DHT22;8962;52.538;13.266;2023-02-03T11:56:16;8.40;99.90
17687;DHT22;8962;52.538;13.266;2023-02-03T12:02:41;8.40;99.90
17687;DHT22;8962;52.538;13.266;2023-02-03T12:05:39;8.40;99.90
17687;DHT22;8962;52.538;13.266;2023-02-03T12:08:17;8.50;99.90
17687;DHT22;8962;52.538;13.266;2023-02-03T12:10:57;8.50;99.90
17687;DHT22;8962;52.538;13.266;2023-02-03T12:13:53;8.70;99.90
17687;DHT22;8962;52.538;13.266;2023-02-03T12:16:34;8.80;99.90
17687;DHT22;8962;52.538;13.266;2023-02-03T12:19:10;9.00;99.90
17687;DHT22;8962;52.538;13.266;2023-02-03T12:21:44;9.20;99.90
17687;DHT22;8962;52.538;13.266;2023-02-03T12:24:23;9.20;99.90
17687;DHT22;8962;52.538;13.266;2023-02-03T12:29:39;9.40;99.90
17687;DHT22;8962;52.538;13.266;2023-02-03T12:32:16;9.30;99.90
17687;DHT22;8962;52.538;13.266;2023-02-03T12:34:51;9.30;99.90
17687;DHT22;8962;52.538;13.266;2023-02-03T12:37:23;9.20;99.90
17687;DHT22;8962;52.538;13.266;2023-02-03T12:39:52;9.30;99.90
17687;DHT22;8962;52.538;13.266;2023-02-03T12:42:22;9.30;99.90
17687;DHT22;8962;52.538;13.266;2023-02-03T12:44:56;9.30;99.90
17687;DHT22;8962;52.538;13.266;2023-02-03T12:47:28;9.30;99.90
17687;DHT22;8962;52.538;13.266;2023-02-03T12:49:58;9.30;99.90
17687;DHT22;8962;52.538;13.266;2023-02-03T12:55:13;9.00;99.90
17687;DHT22;8962;52.538;13.266;2023-02-03T12:57:44;8.60;99.90
17687;DHT22;8962;52.538;13.266;2023-02-03T13:00:19;8.10;99.90
17687;DHT22;8962;52.538;13.266;2023-02-03T13:03:01;6.80;99.90
17687;DHT22;8962;52.538;13.266;2023-02-03T13:05:37;6.30;99.90
17687;DHT22;8962;52.538;13.266;2023-02-03T13:08:13;6.30;99.90
17687;DHT22;8962;52.538;13.266;2023-02-03T13:10:47;6.30;99.90
17687;DHT22;8962;52.538;13.266;2023-02-03T13:13:25;6.30;99.90
17687;DHT22;8962;52.538;13.266;2023-02-03T13:15:54;6.20;99.90
17687;DHT22;8962;52.538;13.266;2023-02-03T13:18:28;6.20;99.90
17687;DHT22;8962;52.538;13.266;2023-02-03T13:20:58;6.00;99.90
17687;DHT22;8962;52.538;13.266;2023-02-03T13:23:27;5.80;99.90
17687;DHT22;8962;52.538;13.266;2023-02-03T13:29:08;5.50;99.90
17687;DHT22;8962;52.538;13.266;2023-02-03T13:31:45;5.50;99.90
17687;DHT22;8962;52.538;13.266;2023-02-03T13:34:34;5.50;99.90
17687;DHT22;8962;52.538;13.266;2023-02-03T13:40:24;5.50;99.90
17687;DHT22;8962;52.538;13.266;2023-02-03T13:42:58;5.60;99.90
17687;DHT22;8962;52.538;13.266;2023-02-03T13:45:29;5.70;99.90
17687;DHT22;8962;52.538;13.266;2023-02-03T13:48:05;5.80;99.90
17687;DHT22;8962;52.538;13.266;2023-02-03T13:50:35;5.80;99.90
17687;DHT22;8962;52.538;13.266;2023-02-03T13:53:05;6.00;99.90
17687;DHT22;8962;52.538;13.266;2023-02-03T13:55:38;6.10;99.90
17687;DHT22;8962;52.538;13.266;2023-02-03T13:58:18;6.20;99.90
17687;DHT22;8962;52.538;13.266;2023-02-03T14:01:28;6.30;99.90
17687;DHT22;8962;52.538;13.266;2023-02-03T14:03:58;6.40;99.90
17687;DHT22;8962;52.538;13.266;2023-02-03T14:06:57;6.40;99.90
17687;DHT22;8962;52.538;13.266;2023-02-03T14:10:08;6.50;99.90
17687;DHT22;8962;52.538;13.266;2023-02-03T14:12:54;6.50;99.90
17687;DHT22;8962;52.538;13.266;2023-02-03T14:15:31;6.70;99.90
17687;DHT22;8962;52.538;13.266;2023-02-03T14:18:30;6.60;99.90
17687;DHT22;8962;52.538;13.266;2023-02-03T14:21:19;6.60;99.90
17687;DHT22;8962;52.538;13.266;2023-02-03T14:23:58;6.70;99.90
17687;DHT22;8962;52.538;13.266;2023-02-03T14:26:37;6.70;99.90
17687;DHT22;8962;52.538;13.266;2023-02-03T14:29:24;6.70;99.90
17687;DHT22;8962;52.538;13.266;2023-02-03T14:31:57;6.80;99.90
17687;DHT22;8962;52.538;13.266;2023-02-03T14:34:36;6.90;99.90
17687;DHT22;8962;52.538;13.266;2023-02-03T14:37:11;7.00;99.90
17687;DHT22;8962;52.538;13.266;2023-02-03T14:40:00;7.10;99.90
17687;DHT22;8962;52.538;13.266;2023-02-03T14:48:34;7.60;99.90
17687;DHT22;8962;52.538;13.266;2023-02-03T14:51:12;7.70;99.90
17687;DHT22;8962;52.538;13.266;2023-02-03T14:53:55;7.70;99.90
17687;DHT22;8962;52.538;13.266;2023-02-03T14:56:35;7.70;99.90
17687;DHT22;8962;52.538;13.266;2023-02-03T14:59:25;7.80;99.90
17687;DHT22;8962;52.538;13.266;2023-02-03T15:02:15;7.80;99.90
17687;DHT22;8962;52.538;13.266;2023-02-03T15:04:44;7.80;99.90
17687;DHT22;8962;52.538;13.266;2023-02-03T15:07:34;7.80;99.90
17687;DHT22;8962;52.538;13.266;2023-02-03T15:10:08;7.80;99.90
17687;DHT22;8962;52.538;13.266;2023-02-03T15:12:38;7.80;99.90
17687;DHT22;8962;52.538;13.266;2023-02-03T15:15:21;7.70;99.90
17687;DHT22;8962;52.538;13.266;2023-02-03T15:17:51;7.70;99.90
17687;DHT22;8962;52.538;13.266;2023-02-03T15:20:30;7.60;99.90
17687;DHT22;8962;52.538;13.266;2023-02-03T15:22:57;7.60;99.90
17687;DHT22;8962;52.538;13.266;2023-02-03T15:25:26;7.50;99.90
17687;DHT22;8962;52.538;13.266;2023-02-03T15:27:54;7.50;99.90
17687;DHT22;8962;52.538;13.266;2023-02-03T15:30:36;7.50;99.90
17687;DHT22;8962;52.538;13.266;2023-02-03T15:33:07;7.50;99.90
17687;DHT22;8962;52.538;13.266;2023-02-03T15:35:37;7.50;99.90
17687;DHT22;8962;52.538;13.266;2023-02-03T15:38:06;7.50;99.90
17687;DHT22;8962;52.538;13.266;2023-02-03T15:40:41;7.40;99.90
17687;DHT22;8962;52.538;13.266;2023-02-03T15:43:14;7.40;99.90
17687;DHT22;8962;52.538;13.266;2023-02-03T15:45:51;7.40;99.90
17687;DHT22;8962;52.538;13.266;2023-02-03T15:48:27;7.40;99.90
17687;DHT22;8962;52.538;13.266;2023-02-03T15:51:04;7.40;99.90
17687;DHT22;8962;52.538;13.266;2023-02-03T15:53:37;7.40;99.90
17687;DHT22;8962;52.538;13.266;2023-02-03T15:56:16;7.30;99.90
17687;DHT22;8962;52.538;13.266;2023-02-03T15:58:45;7.30;99.90
17687;DHT22;8962;52.538;13.266;2023-02-03T16:03:45;7.30;99.90
17687;DHT22;8962;52.538;13.266;2023-02-03T16:06:17;7.30;99.90
17687;DHT22;8962;52.538;13.266;2023-02-03T16:08:46;7.30;99.90
17687;DHT22;8962;52.538;13.266;2023-02-03T16:11:29;7.30;99.90
17687;DHT22;8962;52.538;13.266;2023-02-03T16:13:58;7.20;99.90
17687;DHT22;8962;52.538;13.266;2023-02-03T16:16:28;7.30;99.90
17687;DHT22;8962;52.538;13.266;2023-02-03T16:19:01;7.30;99.90
17687;DHT22;8962;52.538;13.266;2023-02-03T16:21:32;7.30;99.90
17687;DHT22;8962;52.538;13.266;2023-02-03T16:24:03;7.20;99.90
17687;DHT22;8962;52.538;13.266;2023-02-03T16:26:32;7.20;99.90
17687;DHT22;8962;52.538;13.266;2023-02-03T16:29:14;7.20;99.90
17687;DHT22;8962;52.538;13.266;2023-02-03T16:31:59;7.20;99.90
17687;DHT22;8962;52.538;13.266;2023-02-03T16:34:46;7.20;99.90
17687;DHT22;8962;52.538;13.266;2023-02-03T16:37:32;7.20;99.90
17687;DHT22;8962;52.538;13.266;2023-02-03T16:40:21;7.20;99.90
17687;DHT22;8962;52.538;13.266;2023-02-03T16:45:57;7.10;99.90
17687;DHT22;8962;52.538;13.266;2023-02-03T16:48:42;7.10;99.90
17687;DHT22;8962;52.538;13.266;2023-02-03T16:51:36;7.00;99.90
17687;DHT22;8962;52.538;13.266;2023-02-03T16:54:05;7.00;99.90